Aeroporto :
LOGIN :

Iscrizione | Disclaimer

   EN    FR    IT 

 










Sommario :    VFR   VFR Marginale   IFR   IFR Intensivo   IFR Molto Intensivo
Visibilità : 
Base nubi : 
>= 8 km
>= 3000ft
5 / 8 km
1000 / 3000 ft
1500m / 5 km
500 / 1000 ft
800 / 1500m
200 / 500 ft
< 800m
< 200 ft
Simboli :   Temporali  Nebbia  Neve Forte  Precipitazioni Forti  Vento > 20 kt
SIGMETs :   Varie  Temporali  Ghiacco  Turbolenza  Onda orograficha  Ceneri Vulcaniche






- Altitudine del aeroporto : 94 ft
- Codice IATA : QLT


LIRL - Latina Casale (military)

ULTIMO METAR :
  • 271055Z 32008KT CAVOK 15/M09 Q1014 RMK FEW FEW180 MON LIB NC VIS MIN 9999 WIND THR12 33010KT WIND THR30 33010KT BLU

METARs OBSOLETI :
  • 270955Z 31009KT CAVOK 13/M09 Q1014 RMK FEW FEW200 MON LIB NC VIS MIN 9999 WIND THR12 33010KT WIND THR30 33010KT BLU
  • 270855Z 32010KT CAVOK 13/M02 Q1013 RMK FEW FEW180 MON LIB NC VIS MIN 9999 WIND THR12 33009G19KT WIND THR30 33013KT BLU

TAF TAF LIRL
Valido dal 27 a 12 ore il 27 a 21 ore UTC


271100Z 2712/2721 33010KT CAVOK
BECMG 2715/2717 14010KT 9999 FEW025 SCT060
TEMPO 2718/2721 6000 RA BKN020



MetMap, La meteo Aeronautica in un colpo d'occhio ! - Copyright ORBIFLY Dicembre 2007 - Disclaimer

ORBIFLY MET'MAP TEAM :

Programmazione e sviluppo : Alexandra Zaïnal
Concezione : Baudouin d'Aumeries
Aiuto per la programmazione : Marc-Olivier Méhu
Supporto tecnico e logistico : Manuel Goepfert
Aiuto per la traduzione : Arnaldo La Scala

Contatto : metmap@orbifly.com




FONTI E CREDITI :

   NOAA